createdAt,value
2023-04-24T00:01:25.346Z,83.90
2023-04-24T00:03:54.517Z,84.00
2023-04-24T00:06:24.966Z,84.20
2023-04-24T00:08:53.962Z,84.30
2023-04-24T00:11:23.001Z,85.30
2023-04-24T00:13:52.051Z,84.40
2023-04-24T00:16:21.173Z,84.50
2023-04-24T00:18:50.276Z,84.60
2023-04-24T00:21:19.334Z,84.60
2023-04-24T00:23:49.777Z,84.60
2023-04-24T00:26:18.781Z,84.60
2023-04-24T00:28:47.798Z,84.60
2023-04-24T00:31:16.873Z,84.60
2023-04-24T00:33:45.960Z,84.60
2023-04-24T00:36:14.971Z,84.60
2023-04-24T00:38:44.005Z,84.60
2023-04-24T00:41:14.588Z,84.50
2023-04-24T00:43:43.633Z,84.40
2023-04-24T00:46:13.064Z,84.40
2023-04-24T00:48:42.262Z,84.40
2023-04-24T00:51:11.577Z,84.30
2023-04-24T00:53:40.659Z,84.20
2023-04-24T00:56:09.812Z,85.10
2023-04-24T00:58:40.954Z,84.30
2023-04-24T01:01:10.852Z,84.30
2023-04-24T01:03:40.614Z,84.30
2023-04-24T01:06:11.631Z,84.30
2023-04-24T01:08:42.096Z,84.40
2023-04-24T01:11:11.130Z,84.40
2023-04-24T01:13:42.593Z,84.40
2023-04-24T01:16:13.242Z,84.40
2023-04-24T01:18:42.567Z,84.30
2023-04-24T01:21:13.530Z,84.40
2023-04-24T01:23:44.016Z,84.40
2023-04-24T01:26:13.243Z,84.50
2023-04-24T01:28:42.613Z,84.40
2023-04-24T01:31:11.761Z,84.40
2023-04-24T01:33:40.916Z,84.50
2023-04-24T01:36:12.771Z,84.50
2023-04-24T01:38:43.295Z,84.40
2023-04-24T01:41:12.704Z,84.30
2023-04-24T01:43:42.218Z,84.20
2023-04-24T01:46:11.357Z,84.20
2023-04-24T01:48:40.409Z,84.20
2023-04-24T01:51:09.568Z,84.10
2023-04-24T01:53:39.912Z,84.10
2023-04-24T01:56:10.974Z,84.00
2023-04-24T01:58:40.085Z,84.10
2023-04-24T02:01:09.383Z,84.00
2023-04-24T02:03:38.529Z,84.00
2023-04-24T02:06:08.115Z,84.00
2023-04-24T02:08:37.096Z,84.00
2023-04-24T02:11:06.980Z,84.00
2023-04-24T02:13:37.479Z,84.10
2023-04-24T02:16:06.786Z,84.00
2023-04-24T02:18:36.264Z,84.20
2023-04-24T02:21:05.515Z,84.20
2023-04-24T02:23:34.561Z,84.40
2023-04-24T02:26:03.626Z,84.50
2023-04-24T02:28:32.666Z,84.50
2023-04-24T02:31:03.197Z,84.50
2023-04-24T02:33:32.230Z,84.40
2023-04-24T02:36:01.704Z,84.40
2023-04-24T02:38:31.050Z,84.60
2023-04-24T02:41:01.757Z,84.20
2023-04-24T02:43:30.804Z,84.10
2023-04-24T02:45:59.871Z,84.10
2023-04-24T02:48:30.689Z,84.00
2023-04-24T02:50:59.795Z,83.80
2023-04-24T02:53:30.900Z,83.70
2023-04-24T02:55:59.932Z,83.60
2023-04-24T02:58:29.003Z,83.50
2023-04-24T03:00:58.056Z,83.40
2023-04-24T03:03:27.224Z,83.30
2023-04-24T03:05:58.099Z,83.30
2023-04-24T03:08:27.126Z,84.10
2023-04-24T03:10:56.136Z,83.20
2023-04-24T03:13:25.161Z,83.30
2023-04-24T03:15:55.154Z,83.40
2023-04-24T03:18:24.300Z,83.50
2023-04-24T03:20:55.159Z,83.60
2023-04-24T03:23:25.680Z,83.60
2023-04-24T03:25:55.852Z,83.70
2023-04-24T03:28:26.116Z,83.70
2023-04-24T03:31:01.010Z,83.90
2023-04-24T03:33:34.489Z,83.80
2023-04-24T03:36:04.481Z,83.90
2023-04-24T03:38:42.845Z,84.00
2023-04-24T03:41:32.632Z,84.00
2023-04-24T03:44:24.213Z,84.00
2023-04-24T03:46:53.630Z,83.90
2023-04-24T03:49:24.619Z,84.80
2023-04-24T03:51:53.785Z,84.00
2023-04-24T03:54:30.319Z,83.90
2023-04-24T03:56:59.590Z,84.00
2023-04-24T03:59:30.390Z,84.10
2023-04-24T04:02:16.950Z,84.30
2023-04-24T04:04:46.783Z,84.50
2023-04-24T04:07:16.053Z,84.60
2023-04-24T04:09:46.439Z,84.70
2023-04-24T04:12:15.577Z,85.00
2023-04-24T04:14:44.604Z,85.00
2023-04-24T04:17:13.713Z,85.10
2023-04-24T04:19:43.296Z,85.10
2023-04-24T04:22:12.604Z,85.30
2023-04-24T04:24:47.353Z,85.60
2023-04-24T04:27:17.614Z,85.70
2023-04-24T04:30:02.444Z,85.80
2023-04-24T04:32:34.230Z,86.00
2023-04-24T04:35:04.648Z,86.20
2023-04-24T04:37:35.680Z,86.40
2023-04-24T04:40:18.430Z,86.50
2023-04-24T04:42:54.050Z,86.80
2023-04-24T04:45:25.403Z,87.00
2023-04-24T04:48:26.650Z,87.30
2023-04-24T04:50:55.963Z,87.90
2023-04-24T04:53:25.627Z,88.20
2023-04-24T04:55:56.240Z,88.40
2023-04-24T04:58:30.008Z,88.80
2023-04-24T05:01:01.982Z,89.00
2023-04-24T05:03:35.641Z,89.20
2023-04-24T05:06:09.146Z,89.40
2023-04-24T05:08:40.849Z,89.50
2023-04-24T05:11:16.147Z,89.50
2023-04-24T05:13:45.196Z,89.50
2023-04-24T05:16:25.493Z,89.50
2023-04-24T05:18:56.549Z,89.50
2023-04-24T05:21:31.906Z,89.70
2023-04-24T05:24:00.957Z,89.80
2023-04-24T05:27:00.780Z,90.10
2023-04-24T05:29:38.155Z,90.30
2023-04-24T05:32:08.347Z,90.50
2023-04-24T05:34:37.850Z,90.60
2023-04-24T05:37:09.338Z,91.00
2023-04-24T05:39:38.923Z,90.70
2023-04-24T05:42:09.509Z,90.80
2023-04-24T05:44:38.551Z,91.00
2023-04-24T05:47:07.596Z,91.00
2023-04-24T05:49:36.638Z,91.10
2023-04-24T05:52:07.534Z,91.10
2023-04-24T05:54:36.656Z,91.00
2023-04-24T05:57:08.700Z,90.90
2023-04-24T05:59:52.825Z,90.90
2023-04-24T06:02:23.974Z,90.90
2023-04-24T06:04:53.922Z,90.80
2023-04-24T06:07:23.153Z,90.80
2023-04-24T06:09:52.251Z,90.70
2023-04-24T06:12:21.263Z,90.80
2023-04-24T06:15:01.311Z,90.70
2023-04-24T06:17:52.053Z,90.70
2023-04-24T06:20:22.081Z,90.70
2023-04-24T06:22:51.176Z,90.70
2023-04-24T06:25:20.936Z,90.70
2023-04-24T06:27:50.145Z,90.70
2023-04-24T06:30:20.601Z,90.70
2023-04-24T06:32:49.642Z,90.80
2023-04-24T06:35:18.894Z,90.80
2023-04-24T06:37:48.611Z,90.70
2023-04-24T06:40:19.550Z,90.70
2023-04-24T06:42:48.673Z,90.70
2023-04-24T06:45:17.804Z,90.70
2023-04-24T06:47:49.506Z,90.60
2023-04-24T06:50:18.672Z,90.60
2023-04-24T06:52:47.963Z,90.60
2023-04-24T06:55:17.689Z,90.70
2023-04-24T06:57:46.946Z,90.80
2023-04-24T07:00:17.162Z,90.80
2023-04-24T07:02:46.235Z,90.80
2023-04-24T07:05:17.020Z,90.80
2023-04-24T07:07:46.052Z,90.70
2023-04-24T07:10:15.500Z,90.60
2023-04-24T07:12:44.486Z,90.60
2023-04-24T07:15:13.583Z,90.60
2023-04-24T07:17:44.617Z,90.60
2023-04-24T07:20:15.515Z,90.50
2023-04-24T07:22:45.928Z,90.50
2023-04-24T07:25:14.971Z,90.50
2023-04-24T07:27:44.029Z,90.50
2023-04-24T07:30:13.898Z,90.50
2023-04-24T07:32:43.007Z,90.40
2023-04-24T07:35:12.273Z,90.40
2023-04-24T07:37:41.384Z,90.40
2023-04-24T07:40:12.830Z,90.50
2023-04-24T07:42:42.578Z,90.60
2023-04-24T07:45:11.802Z,90.50
2023-04-24T07:47:41.072Z,90.50
2023-04-24T07:50:10.616Z,90.50
2023-04-24T07:52:39.711Z,90.50
2023-04-24T07:55:09.444Z,90.60
2023-04-24T07:57:39.859Z,90.50
2023-04-24T08:00:10.372Z,90.50
2023-04-24T08:02:42.667Z,90.50
2023-04-24T08:05:12.429Z,90.50
2023-04-24T08:07:43.683Z,90.50
2023-04-24T08:10:13.278Z,90.50
2023-04-24T08:12:43.867Z,90.50
2023-04-24T08:15:13.104Z,90.50
2023-04-24T08:17:42.170Z,90.40
2023-04-24T08:20:14.707Z,90.30
2023-04-24T08:22:44.844Z,90.30
2023-04-24T08:25:13.901Z,90.30
2023-04-24T08:27:44.692Z,90.20
2023-04-24T08:30:14.222Z,90.20
2023-04-24T08:32:43.518Z,90.20
2023-04-24T08:35:12.682Z,90.20
2023-04-24T08:37:41.715Z,90.20
2023-04-24T08:40:15.948Z,90.20
2023-04-24T08:42:46.872Z,90.20
2023-04-24T08:45:16.026Z,90.30
2023-04-24T08:47:46.441Z,90.20
2023-04-24T08:50:16.375Z,90.20
2023-04-24T08:52:45.618Z,90.30
2023-04-24T08:55:15.931Z,90.20
2023-04-24T08:57:49.295Z,90.20
2023-04-24T09:00:19.568Z,90.10
2023-04-24T09:02:50.998Z,90.10
2023-04-24T09:05:20.869Z,90.10
2023-04-24T09:07:55.959Z,90.10
2023-04-24T09:10:26.906Z,90.00
2023-04-24T09:12:59.228Z,89.90
2023-04-24T09:15:28.508Z,89.80
2023-04-24T09:17:58.546Z,89.50
2023-04-24T09:20:27.636Z,89.20
2023-04-24T09:22:58.798Z,89.00
2023-04-24T09:25:34.361Z,88.80
2023-04-24T09:28:07.597Z,88.60
2023-04-24T09:30:36.659Z,88.40
2023-04-24T09:33:16.315Z,88.20
2023-04-24T09:35:50.628Z,88.10
2023-04-24T09:38:19.697Z,87.90
2023-04-24T09:40:48.769Z,87.60
2023-04-24T09:43:19.516Z,87.40
2023-04-24T09:45:48.639Z,87.40
2023-04-24T09:48:17.826Z,87.40
2023-04-24T09:50:49.078Z,87.20
2023-04-24T09:53:17.902Z,86.80
2023-04-24T09:55:49.919Z,86.50
2023-04-24T09:58:20.837Z,86.10
2023-04-24T10:00:49.902Z,86.10
2023-04-24T10:03:20.743Z,85.70
2023-04-24T10:05:50.152Z,85.70
2023-04-24T10:08:19.404Z,85.70
2023-04-24T10:10:48.710Z,85.50
2023-04-24T10:13:19.260Z,85.20
2023-04-24T10:15:50.277Z,84.70
2023-04-24T10:18:20.017Z,84.20
2023-04-24T10:20:49.918Z,84.10
2023-04-24T10:23:20.437Z,83.70
2023-04-24T10:25:50.746Z,83.30
2023-04-24T10:28:22.773Z,83.10
2023-04-24T10:30:53.232Z,82.90
2023-04-24T10:33:23.395Z,82.80
2023-04-24T10:35:54.030Z,82.00
2023-04-24T10:38:27.097Z,81.70
2023-04-24T10:41:08.990Z,81.70
2023-04-24T10:43:41.723Z,81.20
2023-04-24T10:46:12.440Z,81.40
2023-04-24T10:48:45.438Z,80.80
2023-04-24T10:51:16.139Z,80.40
2023-04-24T10:53:45.329Z,80.10
2023-04-24T10:56:14.636Z,79.80
2023-04-24T10:58:53.468Z,79.80
2023-04-24T11:01:27.554Z,79.20
2023-04-24T11:04:01.742Z,78.40
2023-04-24T11:06:32.909Z,78.30
2023-04-24T11:09:07.237Z,77.90
2023-04-24T11:11:38.012Z,77.10
2023-04-24T11:14:12.148Z,77.10
2023-04-24T11:16:56.193Z,77.00
2023-04-24T11:19:26.844Z,77.10
2023-04-24T11:22:01.455Z,77.10
2023-04-24T11:24:32.995Z,76.70
2023-04-24T11:27:09.020Z,76.20
2023-04-24T11:29:45.053Z,75.50
2023-04-24T11:32:28.913Z,75.10
2023-04-24T11:34:59.056Z,75.00
2023-04-24T11:37:30.184Z,74.90
2023-04-24T11:40:00.981Z,74.90
2023-04-24T11:42:35.518Z,75.20
2023-04-24T11:45:10.648Z,74.70
2023-04-24T11:47:40.423Z,74.40
2023-04-24T11:50:11.951Z,74.60
2023-04-24T11:52:42.341Z,74.20
2023-04-24T11:55:27.049Z,73.70
2023-04-24T11:57:58.649Z,73.70
2023-04-24T12:00:31.073Z,73.20
2023-04-24T12:03:08.389Z,72.90
2023-04-24T12:05:38.125Z,72.40
2023-04-24T12:08:08.871Z,72.20
2023-04-24T12:10:38.474Z,72.00
2023-04-24T12:13:07.693Z,72.20
2023-04-24T12:15:41.991Z,72.10
2023-04-24T12:18:14.845Z,72.30
2023-04-24T12:20:43.894Z,72.50
2023-04-24T12:23:12.916Z,72.00
2023-04-24T12:25:42.813Z,72.00
2023-04-24T12:28:13.487Z,72.00
2023-04-24T12:30:46.315Z,72.10
2023-04-24T12:33:19.361Z,72.30
2023-04-24T12:35:48.611Z,72.00
2023-04-24T12:38:19.002Z,71.10
2023-04-24T12:40:48.007Z,70.60
2023-04-24T12:43:18.344Z,70.60
2023-04-24T12:45:50.047Z,70.20
2023-04-24T12:48:19.083Z,69.60
2023-04-24T12:50:48.140Z,69.40
2023-04-24T12:53:17.752Z,69.40
2023-04-24T12:55:48.025Z,68.90
2023-04-24T12:58:17.493Z,69.50
2023-04-24T13:00:48.672Z,68.40
2023-04-24T13:03:17.862Z,68.30
2023-04-24T13:05:47.124Z,69.70
2023-04-24T13:08:16.144Z,69.00
2023-04-24T13:10:45.233Z,69.00
2023-04-24T13:13:14.344Z,69.00
2023-04-24T13:15:43.320Z,68.90
2023-04-24T13:18:13.820Z,68.60
2023-04-24T13:20:43.240Z,68.40
2023-04-24T13:23:12.822Z,68.30
2023-04-24T13:25:41.859Z,68.30
2023-04-24T13:28:13.282Z,68.30
2023-04-24T13:30:42.325Z,68.40
2023-04-24T13:33:11.439Z,67.90
2023-04-24T13:35:41.946Z,67.90
2023-04-24T13:38:10.959Z,67.70
2023-04-24T13:40:40.057Z,67.60
2023-04-24T13:43:09.223Z,66.90
2023-04-24T13:45:38.887Z,66.40
2023-04-24T13:48:09.934Z,66.30
2023-04-24T13:50:39.086Z,66.60
2023-04-24T13:53:09.559Z,67.10
2023-04-24T13:55:40.253Z,67.20
2023-04-24T13:58:09.331Z,68.00
2023-04-24T14:00:38.549Z,67.40
2023-04-24T14:03:07.847Z,67.30
2023-04-24T14:05:38.826Z,66.80
2023-04-24T14:08:09.456Z,66.90
2023-04-24T14:10:38.572Z,67.00
2023-04-24T14:13:08.025Z,67.20
2023-04-24T14:15:38.360Z,67.30
2023-04-24T14:18:07.799Z,67.00
2023-04-24T14:20:36.894Z,67.00
2023-04-24T14:23:06.258Z,67.20
2023-04-24T14:25:36.726Z,67.20
2023-04-24T14:28:05.902Z,67.10
2023-04-24T14:30:34.910Z,66.20
2023-04-24T14:33:03.952Z,65.70
2023-04-24T14:35:35.191Z,65.40
2023-04-24T14:38:04.253Z,65.10
2023-04-24T14:43:07.444Z,65.10
2023-04-24T14:45:36.565Z,65.40
2023-04-24T14:48:06.108Z,65.40
2023-04-24T14:50:35.385Z,65.00
2023-04-24T14:53:05.168Z,64.90
2023-04-24T14:55:35.557Z,64.80
2023-04-24T14:58:06.568Z,64.70
2023-04-24T15:00:35.702Z,65.00
2023-04-24T15:03:05.053Z,65.00
2023-04-24T15:05:34.759Z,64.80
2023-04-24T15:08:04.116Z,65.00
2023-04-24T15:10:33.185Z,65.00
2023-04-24T15:13:02.285Z,65.00
2023-04-24T15:15:32.976Z,65.00
2023-04-24T15:18:03.151Z,65.00
2023-04-24T15:20:32.284Z,65.00
2023-04-24T15:23:03.268Z,64.90
2023-04-24T15:25:32.608Z,65.00
2023-04-24T15:28:02.276Z,65.00
2023-04-24T15:30:33.115Z,64.90
2023-04-24T15:33:03.148Z,64.90
2023-04-24T15:35:32.697Z,64.70
2023-04-24T15:38:01.814Z,64.40
2023-04-24T15:40:30.982Z,64.20
2023-04-24T15:43:00.230Z,64.10
2023-04-24T15:45:29.553Z,63.60
2023-04-24T15:48:00.081Z,63.80
2023-04-24T15:50:29.364Z,63.80
2023-04-24T15:52:58.488Z,63.80
2023-04-24T15:55:27.636Z,63.50
2023-04-24T15:57:56.849Z,63.40
2023-04-24T16:00:26.064Z,63.50
2023-04-24T16:02:55.268Z,63.40
2023-04-24T16:05:25.765Z,63.50
2023-04-24T16:07:54.818Z,62.90
2023-04-24T16:10:23.842Z,63.10
2023-04-24T16:12:54.523Z,63.40
2023-04-24T16:15:23.550Z,63.70
2023-04-24T16:17:52.732Z,63.40
2023-04-24T16:20:21.919Z,62.50
2023-04-24T16:22:52.323Z,61.70
2023-04-24T16:25:21.539Z,61.50
2023-04-24T16:27:52.706Z,61.40
2023-04-24T16:30:21.810Z,61.70
2023-04-24T16:32:51.115Z,61.90
2023-04-24T16:35:20.294Z,61.70
2023-04-24T16:37:49.392Z,61.80
2023-04-24T16:40:20.851Z,62.00
2023-04-24T16:42:50.448Z,62.00
2023-04-24T16:45:19.674Z,62.20
2023-04-24T16:47:48.997Z,62.20
2023-04-24T16:50:18.090Z,62.50
2023-04-24T16:52:47.084Z,62.50
2023-04-24T16:55:16.225Z,62.60
2023-04-24T16:57:46.678Z,62.60
2023-04-24T17:00:16.702Z,62.90
2023-04-24T17:02:48.673Z,62.80
2023-04-24T17:05:19.398Z,62.80
2023-04-24T17:07:48.428Z,62.80
2023-04-24T17:10:17.620Z,62.10
2023-04-24T17:12:48.035Z,62.60
2023-04-24T17:15:17.228Z,61.70
2023-04-24T17:17:46.485Z,61.70
2023-04-24T17:20:22.886Z,61.90
2023-04-24T17:22:53.189Z,61.80
2023-04-24T17:25:22.443Z,61.80
2023-04-24T17:27:53.003Z,61.80
2023-04-24T17:30:22.158Z,61.80
2023-04-24T17:32:51.219Z,62.20
2023-04-24T17:35:22.178Z,62.40
2023-04-24T17:37:51.987Z,62.50
2023-04-24T17:40:21.082Z,62.50
2023-04-24T17:42:50.092Z,62.50
2023-04-24T17:45:20.544Z,62.60
2023-04-24T17:47:51.640Z,62.80
2023-04-24T17:50:20.968Z,62.90
2023-04-24T17:52:50.043Z,63.10
2023-04-24T17:55:19.326Z,63.10
2023-04-24T17:57:48.821Z,63.30
2023-04-24T18:00:18.564Z,63.40
2023-04-24T18:02:49.844Z,63.40
2023-04-24T18:05:19.213Z,63.60
2023-04-24T18:07:48.297Z,63.70
2023-04-24T18:10:17.522Z,63.70
2023-04-24T18:12:46.597Z,63.80
2023-04-24T18:15:16.185Z,64.00
2023-04-24T18:17:45.505Z,63.90
2023-04-24T18:20:17.360Z,64.00
2023-04-24T18:22:47.057Z,63.90
2023-04-24T18:25:16.409Z,63.90
2023-04-24T18:27:45.526Z,64.00
2023-04-24T18:30:15.117Z,64.00
2023-04-24T18:32:44.333Z,64.10
2023-04-24T18:35:13.477Z,64.10
2023-04-24T18:37:45.469Z,64.10
2023-04-24T18:40:15.458Z,64.10
2023-04-24T18:42:45.012Z,64.10
2023-04-24T18:45:15.340Z,64.20
2023-04-24T18:47:44.672Z,64.30
2023-04-24T18:50:14.766Z,64.50
2023-04-24T18:52:45.206Z,64.50
2023-04-24T18:55:14.241Z,64.70
2023-04-24T18:57:43.268Z,64.70
2023-04-24T19:00:13.516Z,64.80
2023-04-24T19:02:42.650Z,64.80
2023-04-24T19:05:12.140Z,64.80
2023-04-24T19:07:42.396Z,64.80
2023-04-24T19:10:13.478Z,64.80
2023-04-24T19:12:42.519Z,64.80
2023-04-24T19:15:12.989Z,64.70
2023-04-24T19:17:42.077Z,64.70
2023-04-24T19:20:11.895Z,64.80
2023-04-24T19:22:41.083Z,64.70
2023-04-24T19:25:10.713Z,64.80
2023-04-24T19:27:41.472Z,65.00
2023-04-24T19:30:11.535Z,65.20
2023-04-24T19:32:40.626Z,65.20
2023-04-24T19:35:10.266Z,65.20
2023-04-24T19:37:39.814Z,65.40
2023-04-24T19:40:09.945Z,65.50
2023-04-24T19:42:44.172Z,66.40
2023-04-24T19:45:14.675Z,65.70
2023-04-24T19:47:43.856Z,65.80
2023-04-24T19:50:12.990Z,65.90
2023-04-24T19:52:42.163Z,66.20
2023-04-24T19:55:11.695Z,66.40
2023-04-24T19:57:42.625Z,66.50
2023-04-24T20:00:13.620Z,66.60
2023-04-24T20:02:42.852Z,66.90
2023-04-24T20:05:12.115Z,67.20
2023-04-24T20:07:41.293Z,67.70
2023-04-24T20:10:11.716Z,68.30
2023-04-24T20:12:42.377Z,68.70
2023-04-24T20:15:13.216Z,69.10
2023-04-24T20:17:42.397Z,69.40
2023-04-24T20:20:12.542Z,69.70
2023-04-24T20:22:41.978Z,70.00
2023-04-24T20:25:13.159Z,70.40
2023-04-24T20:27:43.895Z,70.80
2023-04-24T20:30:13.996Z,71.90
2023-04-24T20:32:43.677Z,71.20
2023-04-24T20:35:13.164Z,71.40
2023-04-24T20:37:42.491Z,71.60
2023-04-24T20:40:14.162Z,71.80
2023-04-24T20:42:46.383Z,72.00
2023-04-24T20:45:15.857Z,72.20
2023-04-24T20:47:44.978Z,72.20
2023-04-24T20:50:14.097Z,72.40
2023-04-24T20:52:43.099Z,72.50
2023-04-24T20:55:12.235Z,72.70
2023-04-24T20:57:41.351Z,72.80
2023-04-24T21:00:13.178Z,73.00
2023-04-24T21:02:42.335Z,73.60
2023-04-24T21:05:11.811Z,73.20
2023-04-24T21:07:40.874Z,73.30
2023-04-24T21:10:11.018Z,73.40
2023-04-24T21:12:40.000Z,73.50
2023-04-24T21:15:09.786Z,73.50
2023-04-24T21:17:40.666Z,73.60
2023-04-24T21:20:10.838Z,73.70
2023-04-24T21:22:39.891Z,73.90
2023-04-24T21:25:09.859Z,74.00
2023-04-24T21:27:39.573Z,74.10
2023-04-24T21:30:09.663Z,74.30
2023-04-24T21:32:40.661Z,74.50
2023-04-24T21:35:10.597Z,74.60
2023-04-24T21:37:39.964Z,74.80
2023-04-24T21:40:13.519Z,74.80
2023-04-24T21:42:42.794Z,74.90
2023-04-24T21:45:12.890Z,75.10
2023-04-24T21:47:43.278Z,75.10
2023-04-24T21:50:12.949Z,75.00
2023-04-24T21:52:42.031Z,75.00
2023-04-24T21:55:11.238Z,75.00
2023-04-24T21:57:40.702Z,75.10
2023-04-24T22:00:11.726Z,75.30
2023-04-24T22:02:43.237Z,75.30
2023-04-24T22:05:15.880Z,75.30
2023-04-24T22:07:47.848Z,75.30
2023-04-24T22:10:19.192Z,75.30
2023-04-24T22:12:48.260Z,75.20
2023-04-24T22:15:17.285Z,75.20
2023-04-24T22:17:49.689Z,75.30
2023-04-24T22:20:18.864Z,75.40
2023-04-24T22:22:48.641Z,75.40
2023-04-24T22:25:19.713Z,75.30
2023-04-24T22:27:48.731Z,75.30
2023-04-24T22:30:18.187Z,75.30
2023-04-24T22:32:49.387Z,75.40
2023-04-24T22:35:19.499Z,75.50
2023-04-24T22:37:50.594Z,75.60
2023-04-24T22:40:19.739Z,75.50
2023-04-24T22:42:48.787Z,75.60
2023-04-24T22:45:18.073Z,75.60
2023-04-24T22:47:48.510Z,75.60
2023-04-24T22:50:17.740Z,75.70
2023-04-24T22:52:47.660Z,75.70
2023-04-24T22:55:16.673Z,75.70
2023-04-24T22:57:45.766Z,75.70
2023-04-24T23:00:16.061Z,75.60
2023-04-24T23:02:45.230Z,75.70
2023-04-24T23:05:15.881Z,75.80
2023-04-24T23:07:44.925Z,75.70
2023-04-24T23:10:13.922Z,75.60
2023-04-24T23:12:43.785Z,75.60
2023-04-24T23:15:13.220Z,75.50
2023-04-24T23:17:42.292Z,75.60
2023-04-24T23:20:14.160Z,75.60
2023-04-24T23:22:44.583Z,75.60
2023-04-24T23:25:13.548Z,75.60
2023-04-24T23:27:42.718Z,75.70
2023-04-24T23:30:12.289Z,75.70
2023-04-24T23:32:41.331Z,75.80
2023-04-24T23:35:11.584Z,75.80
2023-04-24T23:37:40.675Z,75.80
2023-04-24T23:40:13.027Z,75.90
2023-04-24T23:42:42.039Z,76.00
2023-04-24T23:45:12.217Z,76.10
2023-04-24T23:47:41.694Z,76.30
2023-04-24T23:50:11.963Z,76.40
2023-04-24T23:52:41.182Z,76.50
2023-04-24T23:55:12.036Z,76.50
2023-04-24T23:57:41.101Z,76.50
